Latest Coastal Weather Observations for Kiama

IDN60701

Issued at 2:31 pm EST Friday 29 May 2015 (issued every 10 minutes, with the page automatically refreshed every 10 minutes)

About coastal observations | Map of coastal stations | Coastal observations for NSW | Marine services | Other Formats
Station Details ID: 068242 Name: KIAMA (BOMBO HEADLAND) Lat: -34.65 Lon: 150.86 Height: 15.5 m
Data from the previous 72 hours. | See also: Recent months at Kiama
Date/Time
EST
Temp

°C
Wind Pressure Rain
since 9am
mm
Weather Cloud Vis
km
Sea
Height
m
Swell
Dir
 
Speed
knots
Gust
knots
hPa Trend Height
m
Period
s
Dir
29/02:30pm 20.8 WNW 2 4 - - 0.0 - - - - - - -
29/02:00pm 20.2 W 3 6 - - 0.0 - - - - - - -
29/01:30pm 20.4 W 6 11 - - 0.0 - - - - - - -
29/01:00pm 20.1 WNW 6 11 - - 0.0 - - - - - - -
29/12:30pm 19.8 W 5 10 - - 0.0 - - - - - - -
29/12:00pm 19.6 W 6 11 - - 0.0 - - - - - - -
29/11:30am 19.5 WSW 11 16 - - 0.0 - - - - - - -
29/11:00am 18.9 WSW 8 16 - - 0.0 - - - - - - -
29/10:30am 18.4 W 8 11 - - 0.0 - - - - - - -
29/10:00am 18.4 W 8 13 - - 0.0 - - - - - - -
29/09:30am 17.9 NW 5 8 - - 0.0 - - - - - - -
29/09:00am 17.4 NW 2 4 - - 0.0 - - - - - - -
29/08:30am 17.6 NNW 5 6 - - 0.0 - - - - - - -
29/08:00am 17.7 NW 5 8 - - 0.0 - - - - - - -
29/07:30am 16.4 NW 4 5 - - 0.0 - - - - - - -
29/07:00am 16.5 W 3 4 - - 0.0 - - - - - - -
29/06:30am 16.2 W 3 5 - - 0.0 - - - - - - -
29/06:00am 15.7 WNW 4 5 - - 0.0 - - - - - - -
29/05:30am 15.9 CALM 0 2 - - 0.0 - - - - - - -
29/05:00am 15.7 W 4 5 - - 0.0 - - - - - - -
29/04:30am 16.3 NW 5 10 - - 0.0 - - - - - - -
29/04:00am 16.2 NW 5 7 - - 0.0 - - - - - - -
29/03:30am 16.3 NNW 2 3 - - 0.0 - - - - - - -
29/03:00am 16.1 CALM 0 3 - - 0.0 - - - - - - -
29/02:30am 16.2 NNW 4 7 - - 0.0 - - - - - - -
29/02:00am 16.1 NNW 5 7 - - 0.0 - - - - - - -
29/01:30am 15.7 N 4 6 - - 0.0 - - - - - - -
29/01:00am 15.9 NNW 2 3 - - 0.0 - - - - - - -
29/12:30am 15.7 N 3 4 - - 0.0 - - - - - - -
29/12:00am 15.6 CALM 0 0 - - 0.0 - - - - - - -
 
Date/Time
EST
Temp

°C
Wind Pressure Rain
since 9am
mm
Weather Cloud Vis
km
Sea
Height
m
Swell
Dir
 
Speed
knots
Gust
knots
hPa Trend Height
m
Period
s
Dir
28/11:30pm 15.8 NNW 3 4 - - 0.0 - - - - - - -
28/11:00pm 15.9 N 4 5 - - 0.0 - - - - - - -
28/10:30pm 16.9 NNW 4 7 - - 0.0 - - - - - - -
28/10:00pm 16.3 WNW 5 7 - - 0.0 - - - - - - -
28/09:30pm 16.2 WNW 6 9 - - 0.0 - - - - - - -
28/09:00pm 15.7 NW 7 8 - - 0.0 - - - - - - -
28/08:30pm 16.1 NW 8 10 - - 0.0 - - - - - - -
28/08:00pm 15.9 NW 5 7 - - 0.0 - - - - - - -
28/07:30pm 16.0 NNW 7 9 - - 0.0 - - - - - - -
28/07:00pm 16.8 NW 4 7 - - 0.0 - - - - - - -
28/06:30pm 17.5 NW 4 5 - - 0.0 - - - - - - -
28/06:00pm 16.9 WNW 5 7 - - 0.0 - - - - - - -
28/05:30pm 17.4 WNW 5 7 - - 0.0 - - - - - - -
28/05:00pm 17.5 WNW 4 6 - - 0.0 - - - - - - -
28/04:30pm 18.1 NW 3 5 - - 0.0 - - - - - - -
28/04:00pm 18.9 N 4 7 - - 0.0 - - - - - - -
28/03:30pm 19.5 N 6 9 - - 0.0 - - - - - - -
28/03:00pm 19.6 NNE 3 6 - - 0.0 - - - - - - -
28/02:30pm 20.5 NE 4 6 - - 0.0 - - - - - - -
28/02:00pm 21.4 NE 3 5 - - 0.0 - - - - - - -
28/01:30pm 21.8 NE 2 4 - - 0.0 - - - - - - -
28/01:00pm 21.6 NE 2 4 - - 0.0 - - - - - - -
28/12:30pm 21.6 NE 4 6 - - 0.0 - - - - - - -
28/12:00pm 21.7 NE 4 5 - - 0.0 - - - - - - -
28/11:30am 21.3 NE 2 5 - - 0.0 - - - - - - -
28/11:00am 20.6 ENE 3 5 - - 0.0 - - - - - - -
28/10:30am 20.7 NE 1 3 - - 0.0 - - - - - - -
28/10:00am 19.7 NNE 3 4 - - 0.0 - - - - - - -
28/09:30am 18.8 NNE 2 4 - - 0.0 - - - - - - -
28/09:00am 18.5 CALM 0 0 - - 0.0 - - - - - - -
28/08:30am 16.5 CALM 0 0 - - 0.0 - - - - - - -
28/08:00am 15.5 CALM 0 0 - - 0.0 - - - - - - -
28/07:30am 14.5 NW 4 5 - - 0.0 - - - - - - -
28/07:00am 14.6 CALM 0 0 - - 0.0 - - - - - - -
28/06:30am 13.7 CALM 0 0 - - 0.0 - - - - - - -
28/06:00am 13.9 CALM 0 1 - - 0.0 - - - - - - -
28/05:30am 14.3 NW 2 4 - - 0.0 - - - - - - -
28/05:00am 14.3 CALM 0 2 - - 0.0 - - - - - - -
28/04:30am 14.5 SW 1 3 - - 0.0 - - - - - - -
28/04:00am 15.7 W 5 7 - - 0.0 - - - - - - -
28/03:30am 15.9 W 8 11 - - 0.0 - - - - - - -
28/03:00am 15.9 W 6 10 - - 0.0 - - - - - - -
28/02:30am 15.4 W 7 10 - - 0.0 - - - - - - -
28/02:00am 15.3 W 6 9 - - 0.0 - - - - - - -
28/01:30am 15.3 W 6 10 - - 0.0 - - - - - - -
28/01:00am 15.6 W 7 10 - - 0.0 - - - - - - -
28/12:30am 14.8 W 4 6 - - 0.0 - - - - - - -
28/12:00am 14.4 W 4 5 - - 0.0 - - - - - - -
 
Date/Time
EST
Temp

°C
Wind Pressure Rain
since 9am
mm
Weather Cloud Vis
km
Sea
Height
m
Swell
Dir
 
Speed
knots
Gust
knots
hPa Trend Height
m
Period
s
Dir
27/11:30pm 14.7 W 4 6 - - 0.0 - - - - - - -
27/11:00pm 15.9 W 6 9 - - 0.0 - - - - - - -
27/10:30pm 15.9 WNW 5 7 - - 0.0 - - - - - - -
27/10:00pm 16.5 WNW 4 7 - - 0.0 - - - - - - -
27/09:30pm 16.1 WNW 5 7 - - 0.0 - - - - - - -
27/09:00pm 17.1 W 7 10 - - 0.0 - - - - - - -
27/08:30pm 17.3 WNW 6 11 - - 0.0 - - - - - - -
27/08:00pm 17.1 W 5 8 - - 0.0 - - - - - - -
27/07:30pm 17.1 WNW 4 7 - - 0.0 - - - - - - -
27/07:00pm 16.8 NW 5 6 - - 0.0 - - - - - - -
27/06:30pm 16.1 WNW 5 7 - - 0.0 - - - - - - -
27/06:00pm 15.7 W 3 6 - - 0.0 - - - - - - -
27/05:30pm 16.5 CALM 0 0 - - 0.0 - - - - - - -
27/05:00pm 17.2 CALM 0 0 - - 0.0 - - - - - - -
27/04:30pm 18.7 N 2 3 - - 0.0 - - - - - - -
27/04:00pm 19.7 NE 3 4 - - 0.0 - - - - - - -
27/03:30pm 20.2 NNE 3 5 - - 0.0 - - - - - - -
27/03:00pm 20.3 NNE 3 5 - - 0.0 - - - - - - -
27/02:30pm 20.4 NNE 5 7 - - 0.0 - - - - - - -
27/02:00pm 20.6 NE 4 7 - - 0.0 - - - - - - -
27/01:30pm 20.7 NE 4 6 - - 0.0 - - - - - - -
27/01:00pm 20.5 NNE 5 7 - - 0.0 - - - - - - -
27/12:30pm 20.5 NNE 5 8 - - 0.0 - - - - - - -
27/12:00pm 20.0 W 1 4 - - 0.0 - - - - - - -
27/11:30am 20.1 NNE 4 6 - - 0.0 - - - - - - -
27/11:00am 19.4 N 4 7 - - 0.0 - - - - - - -
27/10:30am 19.0 NNW 5 8 - - 0.0 - - - - - - -
27/10:00am 18.1 N 5 7 - - 0.0 - - - - - - -
27/09:30am 17.6 NNW 4 6 - - 0.0 - - - - - - -
27/09:00am 17.0 NNW 5 7 - - 0.0 - - - - - - -
27/08:30am 15.8 NW 5 8 - - 0.0 - - - - - - -
27/08:00am 14.8 WNW 6 8 - - 0.0 - - - - - - -
27/07:30am 14.3 WNW 5 6 - - 0.0 - - - - - - -
27/07:00am 13.2 W 4 5 - - 0.0 - - - - - - -
27/06:30am 13.2 WNW 6 7 - - 0.0 - - - - - - -
27/06:00am 13.5 WNW 5 6 - - 0.0 - - - - - - -
27/05:30am 13.9 WNW 5 6 - - 0.0 - - - - - - -
27/05:00am 13.5 W 6 7 - - 0.0 - - - - - - -
27/04:30am 13.7 WNW 5 7 - - 0.0 - - - - - - -
27/04:00am 13.5 WNW 6 8 - - 0.0 - - - - - - -
27/03:30am 14.4 WNW 5 7 - - 0.0 - - - - - - -
27/03:00am 13.7 WNW 5 7 - - 0.0 - - - - - - -
27/02:30am 13.8 WNW 5 6 - - 0.0 - - - - - - -
27/02:00am 14.2 WNW 5 7 - - 0.0 - - - - - - -
27/01:30am 14.1 WNW 5 7 - - 0.0 - - - - - - -
27/01:00am 13.4 W 5 5 - - 0.0 - - - - - - -
27/12:30am 13.5 WNW 5 6 - - 0.0 - - - - - - -
27/12:00am 13.8 WNW 4 5 - - 0.0 - - - - - - -
 
Date/Time
EST
Temp

°C
Wind Pressure Rain
since 9am
mm
Weather Cloud Vis
km
Sea
Height
m
Swell
Dir
 
Speed
knots
Gust
knots
hPa Trend Height
m
Period
s
Dir
26/11:30pm 13.8 W 5 6 - - 0.0 - - - - - - -
26/11:00pm 13.9 W 5 6 - - 0.0 - - - - - - -
26/10:30pm 14.1 WNW 4 5 - - 0.0 - - - - - - -
26/10:00pm 13.8 WNW 6 9 - - 0.0 - - - - - - -
26/09:30pm 14.3 WNW 5 6 - - 0.0 - - - - - - -
26/09:00pm 13.6 W 4 5 - - 0.0 - - - - - - -
26/08:30pm 13.7 W 6 6 - - 0.0 - - - - - - -
26/08:00pm 13.8 W 6 7 - - 0.0 - - - - - - -
26/07:30pm 14.2 W 4 5 - - 0.0 - - - - - - -
26/07:00pm 14.3 W 4 5 - - 0.0 - - - - - - -
26/06:30pm 14.4 W 4 5 - - 0.0 - - - - - - -
26/06:00pm 14.3 W 3 5 - - 0.0 - - - - - - -
26/05:30pm 14.7 W 3 5 - - 0.0 - - - - - - -
26/05:00pm 16.3 SE 2 5 - - 0.0 - - - - - - -
26/04:30pm 16.5 SSE 3 6 - - 0.0 - - - - - - -
26/04:00pm 16.9 SSE 4 7 - - 0.0 - - - - - - -
26/03:30pm 17.1 SSE 4 6 - - 0.0 - - - - - - -
26/03:00pm 17.3 S 6 9 - - 0.0 - - - - - - -

Other Formats:

Comma delimited format used in spreadsheet applications
http://www.bom.gov.au/fwo/IDN60701/IDN60701.95749.axf

JavaScript Object Notation format (JSON) in row-major order
http://www.bom.gov.au/fwo/IDN60701/IDN60701.95749.json